Time;durP1;ratioP1;P1;durP2;ratioP2;P2;SDS_P1;SDS_P2;PMS_P1;PMS_P2;Temp;Humidity;BMP_temperature;BMP_pressure;BME280_temperature;BME280_humidity;BME280_pressure;Samples;Min_cycle;Max_cycle;Signal;HPM_P1;HPM_P2
2022/01/28 00:02:08;;;;;;;;;;;;;;;3.56;100.00;101129.09;4979486;28;1215;-90
2022/01/28 00:04:33;;;;;;;;;;;;;;;3.59;100.00;101128.63;4956221;28;1351;-91
2022/01/28 00:06:58;;;;;;;;;;;;;;;3.67;100.00;101133.78;4970459;28;1252;-90
2022/01/28 00:09:25;;;;;;;;;;;;;;;3.69;100.00;101137.09;4966162;28;1247;-91
2022/01/28 00:11:50;;;;;;;;;;;;;;;3.70;100.00;101149.59;4942933;28;1867;-90
2022/01/28 00:14:25;;;;;;;;;;;;;;;3.74;100.00;101157.03;4958216;28;1210;-90
2022/01/28 00:38:27;;;;;;;;;;;;;;;3.83;100.00;101202.84;4979550;28;614;-91
2022/01/28 00:40:53;;;;;;;;;;;;;;;3.85;100.00;101198.00;4961943;28;1448;-91
2022/01/28 00:43:18;;;;;;;;;;;;;;;3.85;100.00;101201.53;4961967;28;1302;-91
2022/01/28 00:45:43;;;;;;;;;;;;;;;3.84;100.00;101205.28;4961783;28;1208;-91
2022/01/28 00:48:09;;;;;;;;;;;;;;;3.82;100.00;101206.59;4961852;28;1213;-91
2022/01/28 00:50:35;;;;;;;;;;;;;;;3.83;100.00;101224.50;4961492;28;1902;-90
2022/01/28 00:53:00;;;;;;;;;;;;;;;3.81;100.00;101235.53;4961571;28;1357;-91
2022/01/28 00:55:25;;;;;;;;;;;;;;;3.80;100.00;101231.16;4961601;28;1954;-90
2022/01/28 00:57:50;;;;;;;;;;;;;;;3.80;100.00;101236.56;4961988;28;1245;-92
2022/01/28 01:00:16;;;;;;;;;;;;;;;3.77;100.00;101247.84;4961722;28;1400;-91
2022/01/28 01:02:50;;;;;;;;;;;;;;;3.79;100.00;101243.88;4961583;28;1329;-91
2022/01/28 01:05:15;;;;;;;;;;;;;;;3.82;100.00;101256.16;4979078;28;950;-91
2022/01/28 01:07:41;;;;;;;;;;;;;;;3.83;100.00;101262.41;4961693;28;1424;-90
2022/01/28 01:10:06;;;;;;;;;;;;;;;3.83;100.00;101257.78;4961527;28;1942;-91
2022/01/28 01:12:34;;;;;;;;;;;;;;;3.83;100.00;101271.31;4945509;28;1265;-90
2022/01/28 01:15:00;;;;;;;;;;;;;;;3.79;100.00;101276.38;4978827;28;922;-91
2022/01/28 01:17:39;;;;;;;;;;;;;;;3.75;100.00;101279.72;4961605;28;1364;-90
2022/01/28 01:20:21;;;;;;;;;;;;;;;3.80;100.00;101278.03;4961485;28;1280;-91
2022/01/28 01:22:55;;;;;;;;;;;;;;;3.82;100.00;101291.34;4975858;28;1258;-90
2022/01/28 01:25:26;;;;;;;;;;;;;;;3.85;100.00;101287.38;4962138;28;1768;-90
2022/01/28 01:27:55;;;;;;;;;;;;;;;3.84;100.00;101291.13;4962467;28;1249;-90
2022/01/28 01:30:24;;;;;;;;;;;;;;;3.83;100.00;101293.00;4962250;28;1947;-91
2022/01/28 01:32:49;;;;;;;;;;;;;;;3.85;100.00;101300.91;4959165;28;1343;-90
2022/01/28 01:35:14;;;;;;;;;;;;;;;3.85;100.00;101301.75;4961039;28;1416;-90
2022/01/28 01:37:40;;;;;;;;;;;;;;;3.88;100.00;101284.22;4960647;28;1433;-90
2022/01/28 01:40:05;;;;;;;;;;;;;;;3.87;100.00;101290.69;4960682;28;1312;-91
2022/01/28 01:45:41;;;;;;;;;;;;;;;3.86;100.00;101295.28;4978134;28;693;-90
2022/01/28 01:56:47;;;;;;;;;;;;;;;3.86;100.00;101311.53;4937794;29;1001;-91
2022/01/28 01:59:14;;;;;;;;;;;;;;;3.84;100.00;101310.91;4937374;29;930;-91
2022/01/28 02:01:39;;;;;;;;;;;;;;;3.83;100.00;101316.56;4928759;28;1254;-89
2022/01/28 02:04:05;;;;;;;;;;;;;;;3.77;100.00;101318.22;4960361;28;1343;-91
2022/01/28 02:06:30;;;;;;;;;;;;;;;3.82;100.00;101304.06;4960223;28;1424;-91
2022/01/28 02:08:55;;;;;;;;;;;;;;;3.83;100.00;101298.41;4960285;28;1161;-91
2022/01/28 02:11:21;;;;;;;;;;;;;;;3.79;100.00;101308.84;4960511;28;1886;-90
2022/01/28 02:13:49;;;;;;;;;;;;;;;3.80;100.00;101315.09;4962015;28;1372;-90
2022/01/28 02:16:15;;;;;;;;;;;;;;;3.78;100.00;101309.91;4947166;28;1336;-90
2022/01/28 02:18:40;;;;;;;;;;;;;;;3.76;100.00;101316.56;4961243;28;1342;-91
2022/01/28 02:21:09;;;;;;;;;;;;;;;3.74;100.00;101318.69;4960410;28;1328;-90
2022/01/28 02:23:35;;;;;;;;;;;;;;;3.74;100.00;101321.41;4959889;28;1293;-89
2022/01/28 02:26:01;;;;;;;;;;;;;;;3.73;100.00;101322.44;4959762;28;1414;-89
2022/01/28 02:28:29;;;;;;;;;;;;;;;3.73;100.00;101335.97;4960101;28;1234;-89
2022/01/28 02:30:54;;;;;;;;;;;;;;;3.71;100.00;101340.75;4959940;28;1894;-90
2022/01/28 02:33:24;;;;;;;;;;;;;;;3.73;100.00;101336.81;4959742;28;1284;-90
2022/01/28 02:35:50;;;;;;;;;;;;;;;3.74;100.00;101353.88;4958610;28;1439;-90
2022/01/28 02:38:16;;;;;;;;;;;;;;;3.74;100.00;101353.88;4970667;28;1323;-89
2022/01/28 02:40:48;;;;;;;;;;;;;;;3.74;100.00;101351.97;4962398;28;1728;-90
2022/01/28 02:45:50;;;;;;;;;;;;;;;3.76;100.00;101354.47;4977031;28;1853;-89
2022/01/28 02:48:19;;;;;;;;;;;;;;;3.79;100.00;101367.59;4959646;28;1684;-90
2022/01/28 02:51:09;;;;;;;;;;;;;;;3.75;100.00;101364.47;4959489;28;1911;-90
2022/01/28 02:53:54;;;;;;;;;;;;;;;3.75;100.00;101366.34;4976276;28;1194;-89
2022/01/28 02:56:22;;;;;;;;;;;;;;;3.75;100.00;101374.47;4959618;28;1319;-90
2022/01/28 02:58:48;;;;;;;;;;;;;;;3.75;100.00;101371.75;4955853;29;1494;-89
2022/01/28 03:01:15;;;;;;;;;;;;;;;3.75;100.00;101393.44;4940388;29;1394;-90
2022/01/28 03:03:44;;;;;;;;;;;;;;;3.76;100.00;101378.84;4940104;29;1348;-90
2022/01/28 03:06:11;;;;;;;;;;;;;;;3.76;100.00;101381.56;4940270;29;1186;-91
2022/01/28 03:08:36;;;;;;;;;;;;;;;3.75;100.00;101375.31;4940313;29;1268;-90
2022/01/28 03:16:21;;;;;;;;;;;;;;;3.75;100.00;101398.84;4957572;29;674;-91
2022/01/28 03:18:59;;;;;;;;;;;;;;;3.75;100.00;101390.72;4940969;29;1478;-90
2022/01/28 03:23:50;;;;;;;;;;;;;;;3.72;100.00;101399.28;4961378;28;1455;-91
2022/01/28 03:26:16;;;;;;;;;;;;;;;3.73;100.00;101393.66;4958303;28;1810;-91
2022/01/28 03:28:47;;;;;;;;;;;;;;;3.73;100.00;101398.25;4972134;28;1809;-90
2022/01/28 03:31:12;;;;;;;;;;;;;;;3.73;100.00;101403.66;4943162;29;1903;-90
2022/01/28 03:33:37;;;;;;;;;;;;;;;3.75;100.00;101412.38;4945224;28;1499;-92
2022/01/28 03:36:04;;;;;;;;;;;;;;;3.75;100.00;101412.38;4958166;28;1720;-91
2022/01/28 03:38:30;;;;;;;;;;;;;;;3.75;100.00;101424.03;4958162;28;1399;-92
2022/01/28 03:40:56;;;;;;;;;;;;;;;3.70;100.00;101431.16;4957830;28;1449;-91
2022/01/28 03:43:22;;;;;;;;;;;;;;;3.68;100.00;101433.22;4954670;28;1581;-92
2022/01/28 03:45:47;;;;;;;;;;;;;;;3.62;100.00;101429.50;4955171;29;1211;-91
2022/01/28 03:48:12;;;;;;;;;;;;;;;3.61;100.00;101430.56;4965696;28;1844;-92
2022/01/28 03:50:38;;;;;;;;;;;;;;;3.59;100.00;101434.50;4975406;28;1890;-92
2022/01/28 03:53:04;;;;;;;;;;;;;;;3.60;100.00;101433.47;4957998;28;1169;-90
2022/01/28 03:55:29;;;;;;;;;;;;;;;3.61;100.00;101444.09;4957672;28;1285;-91
2022/01/28 03:57:54;;;;;;;;;;;;;;;3.62;100.00;101455.75;4957948;28;1262;-91
2022/01/28 04:00:20;;;;;;;;;;;;;;;3.64;100.00;101459.09;4958173;28;800;-90
2022/01/28 04:02:46;;;;;;;;;;;;;;;3.61;100.00;101470.31;4950854;28;1790;-91
2022/01/28 04:13:26;;;;;;;;;;;;;;;3.50;99.71;101469.09;4975323;28;1302;-91
2022/01/28 04:16:15;;;;;;;;;;;;;;;3.51;99.78;101478.03;4956301;28;1684;-91
2022/01/28 04:18:36;;;;;;;;;;;;;;;3.54;99.81;101483.03;4974368;28;1283;-90
2022/01/28 04:21:01;;;;;;;;;;;;;;;3.58;99.48;101481.56;4959031;28;1608;-90
2022/01/28 04:23:26;;;;;;;;;;;;;;;3.57;99.38;101501.59;4953695;28;1936;-90
2022/01/28 04:25:51;;;;;;;;;;;;;;;3.58;99.32;101492.38;4974281;28;1352;-90
2022/01/28 04:28:17;;;;;;;;;;;;;;;3.60;99.37;101504.69;4966723;28;1807;-91
2022/01/28 04:30:42;;;;;;;;;;;;;;;3.60;99.43;101506.56;4972374;28;1875;-91
2022/01/28 04:33:07;;;;;;;;;;;;;;;3.60;99.04;101512.81;4967694;28;1528;-91
2022/01/28 04:35:32;;;;;;;;;;;;;;;3.61;98.91;101508.22;4958554;28;1447;-91
2022/01/28 04:38:13;;;;;;;;;;;;;;;3.58;98.77;101509.47;4959390;28;1661;-92
2022/01/28 04:40:50;;;;;;;;;;;;;;;3.60;98.38;101503.84;4973661;28;1512;-92
2022/01/28 04:43:25;;;;;;;;;;;;;;;3.59;98.19;101510.31;4963707;28;1745;-92
2022/01/28 04:46:06;;;;;;;;;;;;;;;3.59;98.25;101529.25;4976117;28;1524;-90
2022/01/28 04:51:34;;;;;;;;;;;;;;;3.58;97.85;101538.41;4975291;28;1902;-90
2022/01/28 05:02:06;;;;;;;;;;;;;;;3.58;97.10;101560.06;4941754;29;694;-92
2022/01/28 05:04:51;;;;;;;;;;;;;;;3.58;96.86;101554.66;4955988;29;1092;-90
2022/01/28 05:10:30;;;;;;;;;;;;;;;3.53;96.58;101543.63;4962471;28;1946;-91
2022/01/28 05:13:18;;;;;;;;;;;;;;;3.52;96.79;101556.31;4979106;28;1267;-90
2022/01/28 05:15:59;;;;;;;;;;;;;;;3.51;96.86;101553.81;4979114;28;1549;-90
2022/01/28 05:26:40;;;;;;;;;;;;;;;3.53;95.92;101560.69;4959482;29;610;-90
2022/01/28 05:29:05;;;;;;;;;;;;;;;3.57;95.90;101566.53;4953829;28;1249;-91
2022/01/28 05:31:31;;;;;;;;;;;;;;;3.57;96.01;101561.13;4976380;28;1891;-90
2022/01/28 05:33:56;;;;;;;;;;;;;;;3.58;95.90;101573.59;4975594;28;1248;-90
2022/01/28 05:36:22;;;;;;;;;;;;;;;3.56;95.37;101584.66;4961466;28;1323;-90
2022/01/28 05:38:47;;;;;;;;;;;;;;;3.58;95.54;101573.59;4961424;28;1232;-90
2022/01/28 05:41:15;;;;;;;;;;;;;;;3.57;95.40;101571.97;4961261;28;1260;-90
2022/01/28 05:43:41;;;;;;;;;;;;;;;3.56;95.24;101563.00;5030771;23;1859;-91
2022/01/28 05:46:10;;;;;;;;;;;;;;;3.56;95.46;101581.94;4983407;28;1449;-89
2022/01/28 05:48:36;;;;;;;;;;;;;;;3.56;94.91;101576.53;4999928;28;1271;-90
2022/01/28 05:51:04;;;;;;;;;;;;;;;3.54;94.99;101583.19;4999697;28;1970;-90
2022/01/28 05:53:33;;;;;;;;;;;;;;;3.54;94.93;101592.16;4988075;28;1205;-90
2022/01/28 05:56:01;;;;;;;;;;;;;;;3.54;94.95;101589.44;4964227;28;1272;-90
2022/01/28 05:58:33;;;;;;;;;;;;;;;3.55;95.26;101603.81;4980226;28;1295;-90
2022/01/28 06:00:59;;;;;;;;;;;;;;;3.52;94.98;101605.06;4997669;28;902;-89
2022/01/28 06:03:24;;;;;;;;;;;;;;;3.59;94.70;101607.75;4979388;28;1210;-90
2022/01/28 06:05:56;;;;;;;;;;;;;;;3.64;94.20;101616.09;4979401;28;1488;-90
2022/01/28 06:08:40;;;;;;;;;;;;;;;3.59;94.47;101635.66;4979029;28;1332;-89
2022/01/28 06:11:15;;;;;;;;;;;;;;;3.59;94.18;101626.69;4979771;28;1894;-90
2022/01/28 06:13:40;;;;;;;;;;;;;;;3.58;94.22;101647.53;4979444;28;1566;-89
2022/01/28 06:16:09;;;;;;;;;;;;;;;3.58;94.00;101657.50;4978900;28;1612;-90
2022/01/28 06:18:37;;;;;;;;;;;;;;;3.57;94.23;101666.72;4978309;28;1509;-89
2022/01/28 06:21:03;;;;;;;;;;;;;;;3.56;93.79;101690.25;4979050;28;1236;-89
2022/01/28 06:23:28;;;;;;;;;;;;;;;3.56;93.61;101670.44;4978962;28;1210;-90
2022/01/28 06:25:54;;;;;;;;;;;;;;;3.56;93.57;101668.56;4979355;28;1250;-90
2022/01/28 06:28:19;;;;;;;;;;;;;;;3.55;93.53;101674.19;4979208;28;1282;-90
2022/01/28 06:30:44;;;;;;;;;;;;;;;3.54;93.41;101653.56;4979234;28;1890;-91
2022/01/28 06:33:13;;;;;;;;;;;;;;;3.52;93.80;101655.66;4979007;28;1275;-89
2022/01/28 06:35:47;;;;;;;;;;;;;;;3.51;93.91;101660.22;4979144;28;1237;-89
2022/01/28 06:38:12;;;;;;;;;;;;;;;3.48;93.75;101660.66;4996225;28;994;-89
2022/01/28 06:40:41;;;;;;;;;;;;;;;3.43;92.97;101650.44;4996206;28;1025;-90
2022/01/28 06:43:13;;;;;;;;;;;;;;;3.44;93.13;101662.09;4978483;28;1234;-90
2022/01/28 06:45:41;;;;;;;;;;;;;;;3.44;93.27;101675.63;4981399;28;1828;-91
2022/01/28 06:48:16;;;;;;;;;;;;;;;3.47;93.31;101690.63;4982420;28;1711;-90
2022/01/28 06:50:42;;;;;;;;;;;;;;;3.48;93.23;101686.88;4993040;28;1894;-91
2022/01/28 06:53:07;;;;;;;;;;;;;;;3.51;92.72;101695.41;4978439;28;1262;-91
2022/01/28 06:55:33;;;;;;;;;;;;;;;3.50;92.91;101699.16;4977765;28;1736;-92
2022/01/28 06:57:58;;;;;;;;;;;;;;;3.49;92.68;101700.19;4978419;28;1313;-90
2022/01/28 07:00:23;;;;;;;;;;;;;;;3.51;92.71;101692.69;4963532;28;1704;-90
2022/01/28 07:02:50;;;;;;;;;;;;;;;3.53;92.82;101695.22;4968484;28;1815;-89
2022/01/28 07:05:15;;;;;;;;;;;;;;;3.57;92.27;101705.44;4978125;28;1583;-91
2022/01/28 07:07:40;;;;;;;;;;;;;;;3.57;92.13;101707.31;4976772;28;1704;-91
2022/01/28 07:10:05;;;;;;;;;;;;;;;3.56;91.75;101711.06;4978541;28;1953;-91
2022/01/28 07:12:31;;;;;;;;;;;;;;;3.52;91.89;101709.78;4978075;28;1754;-90
2022/01/28 07:14:56;;;;;;;;;;;;;;;3.56;91.46;101721.88;4980149;28;1747;-90
2022/01/28 07:17:21;;;;;;;;;;;;;;;3.56;91.27;101727.28;4978866;28;1520;-89
2022/01/28 07:19:46;;;;;;;;;;;;;;;3.54;90.69;101726.66;4977729;28;1564;-90
2022/01/28 07:22:11;;;;;;;;;;;;;;;3.52;90.40;101728.72;4977320;28;1549;-89
2022/01/28 07:24:36;;;;;;;;;;;;;;;3.51;90.61;101732.47;4977960;28;1333;-90
2022/01/28 07:27:02;;;;;;;;;;;;;;;3.52;90.53;101736.84;4977610;28;1600;-90
2022/01/28 07:29:30;;;;;;;;;;;;;;;3.53;90.29;101754.75;4977205;28;1169;-91
2022/01/28 07:31:55;;;;;;;;;;;;;;;3.49;90.20;101756.22;4976817;28;1890;-90
2022/01/28 07:34:21;;;;;;;;;;;;;;;3.41;90.44;101766.16;4977600;28;1221;-91
2022/01/28 07:36:46;;;;;;;;;;;;;;;3.40;90.81;101745.56;4978163;28;1438;-91
2022/01/28 07:39:12;;;;;;;;;;;;;;;3.38;90.97;101739.53;4978485;28;1565;-92
2022/01/28 07:41:37;;;;;;;;;;;;;;;3.41;90.91;101735.56;4978022;28;1317;-91
2022/01/28 07:44:03;;;;;;;;;;;;;;;3.42;90.73;101748.06;4978296;28;1248;-92
2022/01/28 07:46:28;;;;;;;;;;;;;;;3.43;90.44;101739.75;4977318;28;1498;-91
2022/01/28 07:48:53;;;;;;;;;;;;;;;3.43;90.16;101755.16;4994637;28;1722;-90
2022/01/28 07:51:18;;;;;;;;;;;;;;;3.44;90.07;101751.41;4976500;28;1944;-90
2022/01/28 07:53:44;;;;;;;;;;;;;;;3.44;89.75;101754.13;4977164;28;1779;-90
2022/01/28 07:56:09;;;;;;;;;;;;;;;3.51;89.54;101764.94;4970288;28;1245;-90
2022/01/28 07:58:34;;;;;;;;;;;;;;;3.56;89.16;101776.03;4977294;28;1284;-89
2022/01/28 08:00:59;;;;;;;;;;;;;;;3.58;88.33;101771.22;4977610;28;1296;-89
2022/01/28 08:03:25;;;;;;;;;;;;;;;3.61;87.57;101784.34;4977458;28;1252;-90
2022/01/28 08:05:50;;;;;;;;;;;;;;;3.63;87.21;101777.72;4977402;28;1213;-90
2022/01/28 08:08:19;;;;;;;;;;;;;;;3.65;87.32;101791.88;4977014;28;1395;-89
2022/01/28 08:10:44;;;;;;;;;;;;;;;3.67;87.51;101788.94;4977399;28;1887;-89
2022/01/28 08:13:10;;;;;;;;;;;;;;;3.70;87.51;101791.25;4976927;28;1189;-90
2022/01/28 08:15:35;;;;;;;;;;;;;;;3.73;86.83;101805.25;4960710;28;1283;-89
2022/01/28 08:18:01;;;;;;;;;;;;;;;3.72;86.73;101794.59;4977130;28;1246;-91
2022/01/28 08:20:26;;;;;;;;;;;;;;;3.72;85.97;101808.16;4977104;28;1432;-89
2022/01/28 08:22:54;;;;;;;;;;;;;;;3.73;86.12;101810.66;4980225;28;1328;-89
2022/01/28 08:25:21;;;;;;;;;;;;;;;3.74;86.26;101822.31;4977082;28;1169;-89
2022/01/28 08:27:46;;;;;;;;;;;;;;;3.74;86.17;101822.31;4994466;28;808;-89
2022/01/28 08:30:12;;;;;;;;;;;;;;;3.76;86.45;101828.34;4976916;28;1887;-89
2022/01/28 08:32:38;;;;;;;;;;;;;;;3.74;86.12;101831.25;4977534;28;1260;-89
2022/01/28 08:35:03;;;;;;;;;;;;;;;3.72;86.04;101833.34;4994488;28;889;-89
2022/01/28 08:37:28;;;;;;;;;;;;;;;3.69;85.54;101838.31;4977031;28;1344;-89
2022/01/28 08:39:54;;;;;;;;;;;;;;;3.66;85.64;101830.59;4976867;28;1391;-89
2022/01/28 08:42:19;;;;;;;;;;;;;;;3.63;85.58;101833.72;4979290;28;1276;-90
2022/01/28 08:44:44;;;;;;;;;;;;;;;3.64;85.49;101838.13;4980981;28;1340;-90
2022/01/28 08:47:09;;;;;;;;;;;;;;;3.64;84.86;101832.69;4980995;28;1300;-89
2022/01/28 08:49:34;;;;;;;;;;;;;;;3.66;84.39;101849.56;4984325;28;1243;-91
2022/01/28 08:52:00;;;;;;;;;;;;;;;3.71;84.46;101863.34;4991945;28;1906;-91
2022/01/28 08:54:28;;;;;;;;;;;;;;;3.76;84.40;101860.84;4985404;28;1285;-91
2022/01/28 08:56:53;;;;;;;;;;;;;;;3.78;84.53;101856.91;4980917;28;1309;-90
2022/01/28 08:59:19;;;;;;;;;;;;;;;3.83;84.61;101866.31;4980613;28;1270;-91
2022/01/28 09:01:44;;;;;;;;;;;;;;;3.82;83.63;101862.78;4980346;28;1313;-91
2022/01/28 09:04:09;;;;;;;;;;;;;;;3.78;83.69;101872.31;4980432;28;1259;-89
2022/01/28 09:06:34;;;;;;;;;;;;;;;3.76;83.63;101872.50;4982068;28;1201;-90
2022/01/28 09:09:03;;;;;;;;;;;;;;;3.71;83.24;101868.75;4982349;28;1249;-90
2022/01/28 09:11:34;;;;;;;;;;;;;;;3.66;83.17;101882.88;4983376;28;1898;-89
2022/01/28 09:13:59;;;;;;;;;;;;;;;3.66;83.26;101887.47;4985377;28;1405;-90
2022/01/28 09:16:25;;;;;;;;;;;;;;;3.66;82.90;101901.84;4991853;28;1355;-90
2022/01/28 09:18:50;;;;;;;;;;;;;;;3.66;82.67;101888.28;4993174;28;1097;-89
2022/01/28 09:21:16;;;;;;;;;;;;;;;3.69;82.28;101873.53;4998280;28;827;-91
2022/01/28 09:23:41;;;;;;;;;;;;;;;3.73;82.07;101874.81;4979798;28;1214;-91
2022/01/28 09:26:07;;;;;;;;;;;;;;;3.79;81.34;101876.69;4980232;28;1308;-91
2022/01/28 09:28:32;;;;;;;;;;;;;;;3.82;81.36;101881.72;4980328;28;1225;-91
2022/01/28 09:30:57;;;;;;;;;;;;;;;3.83;80.91;101910.44;4993005;28;1955;-92
2022/01/28 09:33:24;;;;;;;;;;;;;;;3.85;80.30;101886.72;4996424;28;1210;-90
2022/01/28 09:35:49;;;;;;;;;;;;;;;3.90;80.29;101889.69;4996850;28;1462;-91
2022/01/28 09:38:19;;;;;;;;;;;;;;;3.92;80.01;101890.28;4984939;28;1292;-91
2022/01/28 09:40:47;;;;;;;;;;;;;;;3.93;79.85;101891.97;4994977;28;1023;-90
2022/01/28 09:43:13;;;;;;;;;;;;;;;3.89;79.85;101898.84;4979974;28;1283;-91
2022/01/28 09:45:38;;;;;;;;;;;;;;;3.88;80.40;101902.56;4979846;28;1228;-91
2022/01/28 09:48:04;;;;;;;;;;;;;;;3.96;79.91;101910.53;4979529;28;1329;-92
2022/01/28 09:50:31;;;;;;;;;;;;;;;4.03;79.96;101907.84;4979935;28;1906;-91
2022/01/28 09:53:17;;;;;;;;;;;;;;;4.14;79.77;101918.94;4978434;28;1300;-90
2022/01/28 09:55:45;;;;;;;;;;;;;;;4.23;79.06;101918.75;4979664;28;1229;-91
2022/01/28 09:58:11;;;;;;;;;;;;;;;4.30;79.04;101920.44;4979366;28;1415;-91
2022/01/28 10:00:36;;;;;;;;;;;;;;;4.36;78.53;101930.44;4979304;28;1456;-91
2022/01/28 10:03:06;;;;;;;;;;;;;;;4.34;77.45;101937.94;4979406;28;1293;-90
2022/01/28 10:05:31;;;;;;;;;;;;;;;4.33;77.79;101940.88;4979237;28;1510;-91
2022/01/28 10:08:12;;;;;;;;;;;;;;;4.31;77.62;101937.53;4979220;28;1226;-92
2022/01/28 10:10:53;;;;;;;;;;;;;;;4.38;78.02;101955.47;4979211;28;1898;-92
2022/01/28 10:13:30;;;;;;;;;;;;;;;4.49;78.04;101945.94;4978687;28;1337;-90
2022/01/28 10:15:57;;;;;;;;;;;;;;;4.58;77.69;101944.69;4979100;28;1414;-91
2022/01/28 10:18:36;;;;;;;;;;;;;;;4.65;77.85;101942.81;4978967;28;1264;-91
2022/01/28 10:21:01;;;;;;;;;;;;;;;4.66;77.83;101946.38;4979043;28;1264;-90
2022/01/28 10:23:26;;;;;;;;;;;;;;;4.62;77.69;101956.78;4978698;28;1256;-91
2022/01/28 10:25:56;;;;;;;;;;;;;;;4.59;77.09;101961.81;4996692;28;955;-90
2022/01/28 10:28:22;;;;;;;;;;;;;;;4.62;77.07;101964.09;4979316;28;1265;-91
2022/01/28 10:30:47;;;;;;;;;;;;;;;4.58;76.61;101952.84;4978737;28;1894;-90
2022/01/28 10:33:16;;;;;;;;;;;;;;;4.53;76.68;101952.59;4978342;28;1221;-91
2022/01/28 10:36:04;;;;;;;;;;;;;;;4.51;75.82;101965.50;4978783;28;1764;-90
2022/01/28 10:38:32;;;;;;;;;;;;;;;4.50;75.53;101970.13;4978658;28;1331;-91
2022/01/28 10:41:23;;;;;;;;;;;;;;;4.56;75.41;101957.63;4978490;28;1217;-91
2022/01/28 10:43:53;;;;;;;;;;;;;;;4.60;74.56;101941.75;4995616;28;1631;-91
2022/01/28 10:46:23;;;;;;;;;;;;;;;4.61;74.16;101932.59;4978466;28;1396;-90
2022/01/28 10:48:49;;;;;;;;;;;;;;;4.60;74.70;101931.75;4978397;28;1475;-89
2022/01/28 10:51:15;;;;;;;;;;;;;;;4.51;74.85;101943.81;4977747;28;1894;-90
2022/01/28 10:53:40;;;;;;;;;;;;;;;4.48;73.90;101944.25;4978665;28;1342;-90
2022/01/28 10:56:11;;;;;;;;;;;;;;;4.52;73.90;101948.22;4978736;28;1316;-90
2022/01/28 10:58:37;;;;;;;;;;;;;;;4.53;74.15;101953.44;4962546;28;1394;-90
2022/01/28 11:01:02;;;;;;;;;;;;;;;4.53;74.52;101963.44;4979338;28;1792;-92
2022/01/28 11:03:28;;;;;;;;;;;;;;;4.57;74.54;101954.72;4979766;28;1569;-90
2022/01/28 11:05:57;;;;;;;;;;;;;;;4.64;73.76;101957.44;4980035;28;1624;-90
2022/01/28 11:08:24;;;;;;;;;;;;;;;4.60;72.95;101939.03;4975841;28;1252;-89
2022/01/28 11:10:49;;;;;;;;;;;;;;;4.62;73.25;101943.22;4978587;28;1890;-89
2022/01/28 11:13:14;;;;;;;;;;;;;;;4.68;73.54;101945.09;4978565;28;1479;-89
2022/01/28 11:15:39;;;;;;;;;;;;;;;4.62;73.50;101943.22;4977755;28;1336;-91
2022/01/28 11:18:07;;;;;;;;;;;;;;;4.61;73.75;101960.53;4978331;28;1367;-90
2022/01/28 11:20:54;;;;;;;;;;;;;;;4.67;73.83;101948.06;4978202;28;1229;-89
2022/01/28 11:23:31;;;;;;;;;;;;;;;4.74;74.34;101944.31;4977495;28;1367;-89
2022/01/28 11:26:04;;;;;;;;;;;;;;;4.78;74.29;101937.41;4977741;28;2036;-88
2022/01/28 11:28:50;;;;;;;;;;;;;;;4.76;74.17;101944.94;4978473;28;1304;-91
2022/01/28 11:31:35;;;;;;;;;;;;;;;4.76;73.02;101942.22;4977906;28;1890;-92
2022/01/28 11:34:00;;;;;;;;;;;;;;;4.79;73.27;101941.78;4977712;28;1281;-90
2022/01/28 11:36:31;;;;;;;;;;;;;;;4.78;72.76;101940.13;4978302;28;1741;-93
2022/01/28 11:39:07;;;;;;;;;;;;;;;4.77;73.40;101943.03;4977995;28;1296;-90
2022/01/28 11:41:41;;;;;;;;;;;;;;;4.78;72.33;101955.56;4995324;28;1715;-91
2022/01/28 11:44:08;;;;;;;;;;;;;;;4.76;72.21;101947.66;4978055;28;1323;-92
2022/01/28 11:46:39;;;;;;;;;;;;;;;4.85;72.63;101940.94;4977803;28;1371;-91
2022/01/28 11:49:07;;;;;;;;;;;;;;;4.91;72.57;101942.84;4977541;28;1229;-90
2022/01/28 11:51:41;;;;;;;;;;;;;;;4.98;72.99;101939.31;4977237;28;1968;-90
2022/01/28 11:54:08;;;;;;;;;;;;;;;5.00;71.71;101938.06;4976934;28;1688;-89
2022/01/28 11:56:36;;;;;;;;;;;;;;;5.12;71.93;101949.09;4976885;28;1347;-90
2022/01/28 11:59:07;;;;;;;;;;;;;;;5.15;71.87;101951.41;4977754;28;1312;-90
2022/01/28 12:01:35;;;;;;;;;;;;;;;5.15;71.24;101959.56;4977076;28;1883;-88
2022/01/28 12:04:21;;;;;;;;;;;;;;;5.22;72.23;101957.66;4977523;28;1304;-90
2022/01/28 12:06:50;;;;;;;;;;;;;;;5.14;71.20;101964.16;4964409;28;1339;-90
2022/01/28 12:09:17;;;;;;;;;;;;;;;5.03;71.61;101967.47;4977655;28;1305;-91
2022/01/28 12:11:43;;;;;;;;;;;;;;;5.07;70.28;101982.31;4984505;28;1915;-90
2022/01/28 12:14:12;;;;;;;;;;;;;;;5.00;71.17;101975.22;4995206;28;1596;-88
2022/01/28 12:16:42;;;;;;;;;;;;;;;4.99;70.83;101978.97;4997596;28;1245;-88
2022/01/28 12:19:15;;;;;;;;;;;;;;;4.92;69.86;101974.38;4983306;28;1305;-89
2022/01/28 12:22:00;;;;;;;;;;;;;;;4.90;70.03;101981.03;4982665;28;1422;-87
2022/01/28 12:24:26;;;;;;;;;;;;;;;5.00;70.31;101983.34;4975686;28;1386;-89
2022/01/28 12:27:04;;;;;;;;;;;;;;;5.03;70.57;101981.03;4983156;28;1723;-86
2022/01/28 12:29:31;;;;;;;;;;;;;;;5.03;70.24;101986.47;4983413;28;1791;-87
2022/01/28 12:31:57;;;;;;;;;;;;;;;5.11;70.87;102004.41;4963884;28;1890;-87
2022/01/28 12:34:23;;;;;;;;;;;;;;;5.16;71.10;101986.50;4963574;28;1238;-88
2022/01/28 12:36:49;;;;;;;;;;;;;;;5.25;70.73;101995.25;4981379;28;1038;-88
2022/01/28 12:39:20;;;;;;;;;;;;;;;5.23;70.01;101991.91;4977386;28;1775;-88
2022/01/28 12:41:56;;;;;;;;;;;;;;;5.20;70.93;102003.19;4995477;28;1468;-89
2022/01/28 12:44:22;;;;;;;;;;;;;;;5.13;70.02;101989.63;4984210;28;1268;-89
2022/01/28 12:46:58;;;;;;;;;;;;;;;5.13;69.41;102000.47;4983744;28;1185;-90
2022/01/28 12:49:34;;;;;;;;;;;;;;;5.16;70.22;101981.06;4983811;28;1296;-91
2022/01/28 12:52:01;;;;;;;;;;;;;;;5.24;69.63;101966.44;4983225;28;1902;-91
2022/01/28 12:54:39;;;;;;;;;;;;;;;5.21;68.59;101964.13;4983107;28;1722;-91
2022/01/28 12:57:06;;;;;;;;;;;;;;;5.24;68.26;101970.00;5000817;28;910;-89
2022/01/28 12:59:32;;;;;;;;;;;;;;;5.29;68.38;101978.34;4986076;28;1838;-88
2022/01/28 13:01:57;;;;;;;;;;;;;;;5.42;68.28;101977.50;4984588;28;1970;-89
2022/01/28 13:04:37;;;;;;;;;;;;;;;5.43;67.96;101965.59;4986617;28;1932;-89
2022/01/28 13:09:47;;;;;;;;;;;;;;;5.45;67.34;101958.06;5001349;28;510;-91
2022/01/28 13:12:20;;;;;;;;;;;;;;;5.62;67.51;101975.56;4983440;28;1902;-88
2022/01/28 13:15:03;;;;;;;;;;;;;;;6.47;66.14;101974.47;4983210;28;1703;-89
2022/01/28 13:17:28;;;;;;;;;;;;;;;7.17;63.42;101968.97;4987630;28;1961;-87
2022/01/28 13:19:57;;;;;;;;;;;;;;;6.84;63.68;101974.69;4983469;28;1018;-89
2022/01/28 13:22:23;;;;;;;;;;;;;;;6.39;65.39;101971.16;4982619;28;1217;-87
2022/01/28 13:24:51;;;;;;;;;;;;;;;6.53;65.13;101964.63;4982612;28;1889;-88
2022/01/28 13:27:17;;;;;;;;;;;;;;;6.55;65.67;101980.72;4981444;28;1716;-89
2022/01/28 13:29:44;;;;;;;;;;;;;;;6.67;65.08;101979.81;4980403;28;1205;-87
2022/01/28 13:32:10;;;;;;;;;;;;;;;6.54;66.05;101977.19;4979712;28;1887;-88
2022/01/28 13:34:48;;;;;;;;;;;;;;;6.59;66.40;101981.94;4981158;28;1170;-89
2022/01/28 13:37:40;;;;;;;;;;;;;;;6.39;65.34;101977.44;4979974;28;1331;-88
2022/01/28 13:40:10;;;;;;;;;;;;;;;6.05;66.85;101981.34;4980244;28;1228;-88
2022/01/28 13:42:36;;;;;;;;;;;;;;;6.52;66.20;101984.72;4979753;28;1315;-89
2022/01/28 13:45:04;;;;;;;;;;;;;;;6.68;66.30;101986.09;4980208;28;1429;-88
2022/01/28 13:47:48;;;;;;;;;;;;;;;7.65;64.10;101981.97;4980273;28;1299;-88
2022/01/28 13:50:35;;;;;;;;;;;;;;;7.51;62.94;101979.34;4979781;28;1898;-89
2022/01/28 13:53:07;;;;;;;;;;;;;;;6.20;64.54;101983.81;4972975;28;1855;-89
2022/01/28 13:55:34;;;;;;;;;;;;;;;5.78;66.80;101973.47;4978782;28;1653;-88
2022/01/28 13:58:00;;;;;;;;;;;;;;;5.49;66.60;101985.63;4995294;28;1918;-88
2022/01/28 14:00:34;;;;;;;;;;;;;;;5.40;67.82;102001.31;4978940;28;1939;-88
2022/01/28 14:02:59;;;;;;;;;;;;;;;5.32;66.78;101991.50;4979582;28;1234;-87
2022/01/28 14:05:24;;;;;;;;;;;;;;;5.28;66.88;101998.38;4979547;28;1268;-88
2022/01/28 14:07:53;;;;;;;;;;;;;;;5.22;67.76;101998.38;4979029;28;1767;-88
2022/01/28 14:10:19;;;;;;;;;;;;;;;5.23;68.15;102005.50;4979397;28;1898;-89
2022/01/28 14:12:52;;;;;;;;;;;;;;;5.26;68.02;101991.50;4978887;28;1407;-89
2022/01/28 14:15:32;;;;;;;;;;;;;;;5.24;68.34;101990.88;4979581;28;1498;-88
2022/01/28 14:18:01;;;;;;;;;;;;;;;5.22;68.99;101985.66;4979297;28;1318;-87
2022/01/28 14:20:26;;;;;;;;;;;;;;;5.25;69.24;101987.13;4999247;28;830;-88